Time;durP1;ratioP1;P1;durP2;ratioP2;P2;SDS_P1;SDS_P2;PMS_P1;PMS_P2;Temp;Humidity;BMP_temperature;BMP_pressure;BME280_temperature;BME280_humidity;BME280_pressure;Samples;Min_cycle;Max_cycle;Signal;HPM_P1;HPM_P2
2024/01/11 00:00:34;;;;;;;42.28;24.48;;;;;;;-146.58;100.00;69501.63;5030359;28;20048;-63
2024/01/11 00:03:00;;;;;;;42.28;26.85;;;;;;;-146.58;100.00;69501.63;5032038;28;20072;-63
2024/01/11 00:05:25;;;;;;;45.83;24.98;;;;;;;-146.58;100.00;69501.63;5030088;28;20034;-63
2024/01/11 00:07:51;;;;;;;43.15;26.15;;;;;;;-146.58;100.00;69501.63;5031609;28;20385;-63
2024/01/11 00:10:17;;;;;;;45.22;25.35;;;;;;;-146.58;100.00;69501.63;5030148;28;20041;-63
2024/01/11 00:12:42;;;;;;;45.88;26.33;;;;;;;-146.58;100.00;69501.63;5031496;28;20025;-63
2024/01/11 00:15:08;;;;;;;42.60;25.13;;;;;;;-146.58;100.00;69501.63;5029864;28;20065;-63
2024/01/11 00:17:34;;;;;;;46.35;27.02;;;;;;;-146.58;100.00;69501.63;5031349;28;20025;-63
2024/01/11 00:20:00;;;;;;;46.38;25.20;;;;;;;-146.58;100.00;69501.63;5030038;28;20040;-63
2024/01/11 00:22:25;;;;;;;42.08;24.77;;;;;;;-146.58;100.00;69501.63;5031129;28;20063;-63
2024/01/11 00:24:51;;;;;;;42.70;26.38;;;;;;;-146.58;100.00;69501.63;5029886;28;20045;-63
2024/01/11 00:27:16;;;;;;;42.63;26.30;;;;;;;-146.58;100.00;69501.63;5031481;28;20480;-63
2024/01/11 00:29:42;;;;;;;42.55;27.08;;;;;;;-146.58;100.00;69501.63;5029532;28;20095;-63
2024/01/11 00:32:07;;;;;;;42.70;25.45;;;;;;;-146.58;100.00;69501.63;5031577;28;20536;-63
2024/01/11 00:34:33;;;;;;;38.97;23.67;;;;;;;-146.58;100.00;69501.63;5029645;28;20056;-63
2024/01/11 00:36:58;;;;;;;31.67;21.02;;;;;;;-146.58;100.00;69501.63;5030744;28;20045;-63
2024/01/11 00:39:24;;;;;;;42.90;25.10;;;;;;;-146.58;100.00;69501.63;5029903;28;20037;-63
2024/01/11 00:41:49;;;;;;;40.33;24.00;;;;;;;-146.58;100.00;69501.63;5031050;28;20055;-63
2024/01/11 00:44:14;;;;;;;43.80;24.10;;;;;;;-146.58;100.00;69501.63;5029601;28;20038;-63
2024/01/11 00:46:40;;;;;;;41.50;24.10;;;;;;;-146.58;100.00;69501.63;5030949;28;20022;-63
2024/01/11 00:49:06;;;;;;;39.63;23.65;;;;;;;-146.58;100.00;69501.63;5029651;28;20037;-63
2024/01/11 00:51:31;;;;;;;50.08;27.02;;;;;;;-146.58;100.00;69501.63;5030611;28;20129;-63
2024/01/11 00:53:57;;;;;;;55.60;31.00;;;;;;;-146.58;100.00;69501.63;5029603;28;20071;-64
2024/01/11 00:56:22;;;;;;;90.90;41.90;;;;;;;-146.58;100.00;69501.63;5030920;28;20025;-64
2024/01/11 00:58:48;;;;;;;93.78;45.15;;;;;;;-146.58;100.00;69501.63;5028992;28;20026;-64
2024/01/11 01:01:13;;;;;;;99.47;42.60;;;;;;;-146.58;100.00;69501.63;5030998;28;20025;-64
2024/01/11 01:03:39;;;;;;;76.28;36.40;;;;;;;-146.58;100.00;69501.63;5029253;28;20017;-64
2024/01/11 01:06:05;;;;;;;54.17;31.55;;;;;;;-146.58;100.00;69501.63;5030577;28;20029;-64
2024/01/11 01:08:30;;;;;;;61.95;32.83;;;;;;;-146.58;100.00;69501.63;5030725;28;20025;-64
2024/01/11 01:10:55;;;;;;;54.22;27.80;;;;;;;-146.58;100.00;69501.63;5029434;28;20034;-64
2024/01/11 01:13:21;;;;;;;59.38;31.38;;;;;;;-146.58;100.00;69501.63;5030725;28;20543;-64
2024/01/11 01:15:47;;;;;;;52.65;30.10;;;;;;;-146.58;100.00;69501.63;5029257;28;20049;-63
2024/01/11 01:18:12;;;;;;;42.65;23.40;;;;;;;-146.58;100.00;69501.63;5030568;28;20388;-63
2024/01/11 01:20:37;;;;;;;34.67;23.67;;;;;;;-146.58;100.00;69501.63;5028718;28;20042;-65
2024/01/11 01:23:03;;;;;;;45.30;23.48;;;;;;;-146.58;100.00;69501.63;5030990;28;20397;-65
2024/01/11 01:25:28;;;;;;;37.90;20.00;;;;;;;-146.58;100.00;69501.63;5029156;28;20040;-65
2024/01/11 01:27:55;;;;;;;33.17;20.85;;;;;;;-146.58;100.00;69501.63;5030400;28;20380;-66
2024/01/11 01:30:20;;;;;;;29.27;20.15;;;;;;;-146.58;100.00;69501.63;5028033;28;20400;-65
2024/01/11 01:32:45;;;;;;;33.38;20.83;;;;;;;-146.58;100.00;69501.63;5030304;28;20025;-65
2024/01/11 01:35:11;;;;;;;34.70;20.27;;;;;;;-146.58;100.00;69501.63;5030826;28;20037;-65
2024/01/11 01:37:36;;;;;;;46.40;23.73;;;;;;;-146.58;100.00;69501.63;5034342;28;20480;-65
2024/01/11 01:40:02;;;;;;;39.40;24.52;;;;;;;-146.58;100.00;69501.63;5033122;28;20038;-65
2024/01/11 01:42:27;;;;;;;34.83;21.17;;;;;;;-146.58;100.00;69501.63;5034159;28;20392;-65
2024/01/11 01:44:53;;;;;;;38.47;22.90;;;;;;;-146.58;100.00;69501.63;5033114;28;20408;-65
2024/01/11 01:47:18;;;;;;;33.08;20.75;;;;;;;-146.58;100.00;69501.63;5034424;28;20051;-65
2024/01/11 01:49:44;;;;;;;39.20;20.83;;;;;;;-146.58;100.00;69501.63;5032629;28;20045;-65
2024/01/11 01:52:14;;;;;;;33.40;20.73;;;;;;;-146.58;100.00;69501.63;5034490;28;20024;-65
2024/01/11 01:54:39;;;;;;;40.33;21.58;;;;;;;-146.58;100.00;69501.63;5032609;28;20038;-65
2024/01/11 01:57:07;;;;;;;31.75;21.95;;;;;;;-146.58;100.00;69501.63;5034030;28;20103;-65
2024/01/11 01:59:33;;;;;;;40.63;23.52;;;;;;;-146.58;100.00;69501.63;5032513;28;20045;-66
2024/01/11 02:01:58;;;;;;;40.30;21.27;;;;;;;-146.58;100.00;69501.63;5034122;28;20025;-65
2024/01/11 02:04:24;;;;;;;39.47;23.27;;;;;;;-146.58;100.00;69501.63;5032433;28;20061;-65
2024/01/11 02:06:52;;;;;;;33.45;22.92;;;;;;;-146.58;100.00;69501.63;5034079;28;20029;-65
2024/01/11 02:09:17;;;;;;;36.47;22.10;;;;;;;-146.58;100.00;69501.63;5032779;28;20519;-65
2024/01/11 02:11:44;;;;;;;40.17;22.10;;;;;;;-146.58;100.00;69501.63;5032132;28;20029;-65
2024/01/11 02:14:10;;;;;;;36.30;21.30;;;;;;;-146.58;100.00;69501.63;5032743;28;20037;-65
2024/01/11 02:16:36;;;;;;;34.78;22.92;;;;;;;-146.58;100.00;69501.63;5033649;28;20029;-65
2024/01/11 02:19:02;;;;;;;34.63;22.75;;;;;;;-146.58;100.00;69501.63;5032083;28;20045;-65
2024/01/11 02:21:29;;;;;;;37.75;23.00;;;;;;;-146.58;100.00;69501.63;5033576;28;20456;-65
2024/01/11 02:24:07;;;;;;;32.28;23.60;;;;;;;-146.58;100.00;69501.63;5032438;28;20037;-65
2024/01/11 02:26:33;;;;;;;40.10;22.42;;;;;;;-146.58;100.00;69501.63;5033250;28;20032;-65
2024/01/11 02:28:59;;;;;;;33.65;20.48;;;;;;;-146.58;100.00;69501.63;5032160;28;20123;-65
2024/01/11 02:31:25;;;;;;;37.72;22.80;;;;;;;-146.58;100.00;69501.63;5033735;28;20504;-65
2024/01/11 02:33:55;;;;;;;43.10;22.88;;;;;;;-146.58;100.00;69501.63;5031814;28;20413;-65
2024/01/11 02:36:21;;;;;;;41.45;22.73;;;;;;;-146.58;100.00;69501.63;5033552;28;20033;-66
2024/01/11 02:38:47;;;;;;;38.97;21.55;;;;;;;-146.58;100.00;69501.63;5031761;28;20034;-65
2024/01/11 02:41:15;;;;;;;33.15;21.60;;;;;;;-146.58;100.00;69501.63;5032837;28;20029;-65
2024/01/11 02:43:45;;;;;;;36.37;20.33;;;;;;;-146.58;100.00;69501.63;5031897;28;20029;-65
2024/01/11 02:46:11;;;;;;;32.03;20.83;;;;;;;-146.58;100.00;69501.63;5033415;28;20473;-65
2024/01/11 02:48:36;;;;;;;32.40;20.83;;;;;;;-146.58;100.00;69501.63;5031403;28;20052;-66
2024/01/11 02:51:02;;;;;;;40.97;22.73;;;;;;;-146.58;100.00;69501.63;5033391;28;20465;-65
2024/01/11 02:53:28;;;;;;;44.30;24.23;;;;;;;-146.58;100.00;69501.63;5033141;28;20057;-65
2024/01/11 02:55:53;;;;;;;52.38;28.08;;;;;;;-146.58;100.00;69501.63;5031316;28;20052;-65
2024/01/11 02:58:18;;;;;;;36.15;24.08;;;;;;;-146.58;100.00;69501.63;5033152;28;20017;-65
2024/01/11 03:00:44;;;;;;;32.00;23.75;;;;;;;-146.58;100.00;69501.63;5031443;28;20041;-65
2024/01/11 03:03:09;;;;;;;39.92;25.27;;;;;;;-146.58;100.00;69501.63;5032799;28;20357;-65
2024/01/11 03:05:34;;;;;;;41.83;26.80;;;;;;;-146.58;100.00;69501.63;5031539;28;20041;-65
2024/01/11 03:08:00;;;;;;;32.70;22.95;;;;;;;-146.58;100.00;69501.63;5033043;28;20542;-65
2024/01/11 03:10:25;;;;;;;33.83;20.80;;;;;;;-146.58;100.00;69501.63;5031362;28;20033;-65
2024/01/11 03:12:51;;;;;;;34.53;21.30;;;;;;;-146.58;100.00;69501.63;5032570;28;20022;-65
2024/01/11 03:15:16;;;;;;;30.55;20.05;;;;;;;-146.58;100.00;69501.63;5031605;28;20095;-65
2024/01/11 03:17:41;;;;;;;30.73;21.38;;;;;;;-146.58;100.00;69501.63;5032553;28;20375;-65
2024/01/11 03:20:07;;;;;;;41.08;23.10;;;;;;;-146.58;100.00;69501.63;5031006;28;20037;-65
2024/01/11 03:22:33;;;;;;;35.10;23.25;;;;;;;-146.58;100.00;69501.63;5032585;28;20021;-65
2024/01/11 03:24:58;;;;;;;33.72;22.55;;;;;;;-146.58;100.00;69501.63;5031194;28;20119;-65
2024/01/11 03:27:24;;;;;;;33.40;22.42;;;;;;;-146.58;100.00;69501.63;5032302;28;20033;-65
2024/01/11 03:29:49;;;;;;;38.33;22.08;;;;;;;-146.58;100.00;69501.63;5030890;28;20044;-65
2024/01/11 03:32:15;;;;;;;37.83;22.50;;;;;;;-146.58;100.00;69501.63;5032718;28;20021;-64
2024/01/11 03:34:40;;;;;;;37.42;24.30;;;;;;;-146.58;100.00;69501.63;5030711;28;20036;-64
2024/01/11 03:37:06;;;;;;;45.47;29.20;;;;;;;-146.58;100.00;69501.63;5032503;28;20033;-63
2024/01/11 03:39:31;;;;;;;39.90;26.25;;;;;;;-146.58;100.00;69501.63;5030546;28;20037;-64
2024/01/11 03:41:56;;;;;;;39.95;23.58;;;;;;;-146.58;100.00;69501.63;5032052;28;20025;-63
2024/01/11 03:44:22;;;;;;;44.75;26.58;;;;;;;-146.58;100.00;69501.63;5031044;28;20033;-63
2024/01/11 03:46:47;;;;;;;30.85;21.25;;;;;;;-146.58;100.00;69501.63;5032140;28;20026;-63
2024/01/11 03:49:13;;;;;;;38.67;25.30;;;;;;;-146.58;100.00;69501.63;5030246;28;20041;-63
2024/01/11 03:51:38;;;;;;;38.17;24.05;;;;;;;-146.58;100.00;69501.63;5032071;28;20013;-63
2024/01/11 03:54:03;;;;;;;34.58;22.27;;;;;;;-146.58;100.00;69501.63;5030721;28;20034;-63
2024/01/11 03:56:29;;;;;;;39.42;22.33;;;;;;;-146.58;100.00;69501.63;5031479;28;20030;-63
2024/01/11 03:58:55;;;;;;;49.97;24.27;;;;;;;-146.58;100.00;69501.63;5030141;28;20488;-64
2024/01/11 04:01:20;;;;;;;37.92;26.95;;;;;;;-146.58;100.00;69501.63;5031800;28;20025;-64
2024/01/11 04:03:45;;;;;;;35.97;23.30;;;;;;;-146.58;100.00;69501.63;5030057;28;20045;-64
2024/01/11 04:06:21;;;;;;;44.00;24.70;;;;;;;-146.58;100.00;69501.63;5032036;28;20373;-64
2024/01/11 04:08:46;;;;;;;39.00;23.30;;;;;;;-146.58;100.00;69501.63;5030276;28;20053;-64
2024/01/11 04:11:12;;;;;;;44.75;25.63;;;;;;;-146.58;100.00;69501.63;5031256;28;20484;-63
2024/01/11 04:13:39;;;;;;;44.42;26.40;;;;;;;-146.58;100.00;69501.63;5030223;28;20376;-63
2024/01/11 04:16:06;;;;;;;42.47;24.90;;;;;;;-146.58;100.00;69501.63;5031742;28;20021;-64
2024/01/11 04:18:31;;;;;;;34.13;24.02;;;;;;;-146.58;100.00;69501.63;5029515;28;20497;-64
2024/01/11 04:20:57;;;;;;;39.28;22.90;;;;;;;-146.58;100.00;69501.63;5031657;28;20037;-64
2024/01/11 04:23:22;;;;;;;42.85;25.30;;;;;;;-146.58;100.00;69501.63;5031658;28;20022;-65
2024/01/11 04:25:48;;;;;;;34.45;21.75;;;;;;;-146.58;100.00;69501.63;5029409;28;20041;-64
2024/01/11 04:28:13;;;;;;;36.97;24.95;;;;;;;-146.58;100.00;69501.63;5031680;28;20500;-64
2024/01/11 04:30:38;;;;;;;39.97;26.55;;;;;;;-146.58;100.00;69501.63;5029764;28;20535;-64
2024/01/11 04:33:04;;;;;;;38.33;23.95;;;;;;;-146.58;100.00;69501.63;5031083;28;20399;-64
2024/01/11 04:35:29;;;;;;;33.05;24.40;;;;;;;-146.58;100.00;69501.63;5029801;28;20044;-64
2024/01/11 04:37:54;;;;;;;48.05;26.13;;;;;;;-146.58;100.00;69501.63;5031070;28;20358;-64
2024/01/11 04:40:20;;;;;;;33.60;22.30;;;;;;;-146.58;100.00;69501.63;5029446;28;20045;-64
2024/01/11 04:42:45;;;;;;;38.97;23.83;;;;;;;-146.58;100.00;69501.63;5031123;28;20464;-65
2024/01/11 04:45:11;;;;;;;44.88;27.30;;;;;;;-146.58;100.00;69501.63;5029688;28;20045;-65
2024/01/11 04:47:37;;;;;;;39.80;25.77;;;;;;;-146.58;100.00;69501.63;5030789;28;20035;-65
2024/01/11 04:50:04;;;;;;;33.67;21.38;;;;;;;-146.58;100.00;69501.63;5029798;28;20038;-65
2024/01/11 04:52:29;;;;;;;34.92;23.50;;;;;;;-146.58;100.00;69501.63;5030962;28;20032;-65
2024/01/11 04:54:55;;;;;;;33.97;23.42;;;;;;;-146.58;100.00;69501.63;5029281;28;20041;-65
2024/01/11 04:57:20;;;;;;;34.78;22.20;;;;;;;-146.58;100.00;69501.63;5031106;28;20465;-65
2024/01/11 04:59:45;;;;;;;35.90;23.13;;;;;;;-146.58;100.00;69501.63;5029412;28;20045;-65
2024/01/11 05:02:11;;;;;;;39.75;23.60;;;;;;;-146.58;100.00;69501.63;5030621;28;20033;-65
2024/01/11 05:04:36;;;;;;;40.63;24.73;;;;;;;-146.58;100.00;69501.63;5029139;28;20049;-65
2024/01/11 05:07:01;;;;;;;44.78;23.67;;;;;;;-146.58;100.00;69501.63;5030931;28;20370;-64
2024/01/11 05:09:27;;;;;;;44.30;26.20;;;;;;;-146.58;100.00;69501.63;5028291;28;20107;-64
2024/01/11 05:11:52;;;;;;;39.97;23.27;;;;;;;-146.58;100.00;69501.63;5030505;28;20481;-64
2024/01/11 05:14:17;;;;;;;41.92;23.08;;;;;;;-146.58;100.00;69501.63;5028474;28;20037;-61
2024/01/11 05:16:43;;;;;;;43.88;24.95;;;;;;;-146.58;100.00;69501.63;5030084;28;20369;-61
2024/01/11 05:19:08;;;;;;;35.53;22.10;;;;;;;-146.58;100.00;69501.63;5028767;28;20038;-63
2024/01/11 05:21:34;;;;;;;35.05;22.25;;;;;;;-146.58;100.00;69501.63;5029168;28;20024;-64
2024/01/11 05:23:59;;;;;;;30.38;20.85;;;;;;;-146.58;100.00;69501.63;5028357;28;20045;-64
2024/01/11 05:26:25;;;;;;;41.72;24.00;;;;;;;-146.58;100.00;69501.63;5030379;28;20480;-59
2024/01/11 05:28:51;;;;;;;43.83;24.50;;;;;;;-146.58;100.00;69501.63;5028933;28;20076;-58
2024/01/11 05:31:16;;;;;;;43.53;23.23;;;;;;;-146.58;100.00;69501.63;5030247;28;20021;-58
2024/01/11 05:33:42;;;;;;;36.70;24.17;;;;;;;-146.58;100.00;69501.63;5028946;28;20060;-58
2024/01/11 05:36:08;;;;;;;34.47;23.92;;;;;;;-146.58;100.00;69501.63;5030048;28;20057;-58
2024/01/11 05:38:34;;;;;;;47.35;24.85;;;;;;;-146.58;100.00;69501.63;5028366;28;20029;-58
2024/01/11 05:40:59;;;;;;;37.17;21.67;;;;;;;-146.58;100.00;69501.63;5030199;28;20036;-58
2024/01/11 05:43:25;;;;;;;38.15;24.13;;;;;;;-146.58;100.00;69501.63;5030274;28;20021;-58
2024/01/11 05:45:50;;;;;;;38.60;22.58;;;;;;;-146.58;100.00;69501.63;5024380;28;20041;-58
2024/01/11 05:48:16;;;;;;;44.30;25.05;;;;;;;-146.58;100.00;69501.63;5030330;28;20106;-58
2024/01/11 05:50:42;;;;;;;43.20;23.67;;;;;;;-146.58;100.00;69501.63;5028945;28;20103;-58
2024/01/11 05:53:08;;;;;;;40.90;25.30;;;;;;;-146.58;100.00;69501.63;5030511;28;20025;-58
2024/01/11 05:55:34;;;;;;;45.38;28.35;;;;;;;-146.58;100.00;69501.63;5028102;28;20041;-58
2024/01/11 05:57:59;;;;;;;45.00;28.90;;;;;;;-146.58;100.00;69501.63;5030478;28;20033;-58
2024/01/11 06:00:25;;;;;;;35.97;25.52;;;;;;;-146.58;100.00;69501.63;5028963;28;20103;-58
2024/01/11 06:02:50;;;;;;;45.78;30.02;;;;;;;-146.58;100.00;69501.63;5029482;28;20021;-58
2024/01/11 06:05:15;;;;;;;47.78;27.75;;;;;;;-146.58;100.00;69501.63;5028740;28;20124;-58
2024/01/11 06:07:41;;;;;;;48.17;30.60;;;;;;;-146.58;100.00;69501.63;5029006;28;20432;-57
2024/01/11 06:10:08;;;;;;;49.33;29.80;;;;;;;-146.58;100.00;69501.63;5028396;28;20076;-57
2024/01/11 06:12:34;;;;;;;49.17;29.35;;;;;;;-146.58;100.00;69501.63;5029924;28;20155;-58
2024/01/11 06:14:59;;;;;;;36.85;23.63;;;;;;;-146.58;100.00;69501.63;5028952;28;20488;-58
2024/01/11 06:17:25;;;;;;;48.92;28.17;;;;;;;-146.58;100.00;69501.63;5029328;28;20037;-57
2024/01/11 06:19:50;;;;;;;52.50;34.47;;;;;;;-146.58;100.00;69501.63;5028709;28;20036;-58
2024/01/11 06:22:15;;;;;;;60.28;33.28;;;;;;;-146.58;100.00;69501.63;5033260;28;20037;-58
2024/01/11 06:24:41;;;;;;;46.85;30.52;;;;;;;-146.58;100.00;69501.63;5031524;28;20044;-58
2024/01/11 06:27:06;;;;;;;51.38;27.55;;;;;;;-146.58;100.00;69501.63;5033718;28;20570;-57
2024/01/11 06:29:31;;;;;;;46.17;26.30;;;;;;;-146.58;100.00;69501.63;5031915;28;20099;-58
2024/01/11 06:31:57;;;;;;;48.60;29.77;;;;;;;-146.58;100.00;69501.63;5033220;28;20025;-58
2024/01/11 06:34:22;;;;;;;48.63;31.98;;;;;;;-146.58;100.00;69501.63;5032188;28;20377;-58
2024/01/11 06:36:48;;;;;;;51.60;31.48;;;;;;;-146.58;100.00;69501.63;5033376;28;20392;-57
2024/01/11 06:39:13;;;;;;;58.95;28.85;;;;;;;-146.58;100.00;69501.63;5028993;28;20148;-58
2024/01/11 06:41:38;;;;;;;43.45;27.90;;;;;;;-146.58;100.00;69501.63;5032340;28;20465;-58
2024/01/11 06:44:04;;;;;;;39.50;24.52;;;;;;;-146.58;100.00;69501.63;5031596;28;20049;-58
2024/01/11 06:46:30;;;;;;;45.88;28.02;;;;;;;-146.58;100.00;69501.63;5030420;28;20025;-57
2024/01/11 06:48:55;;;;;;;60.90;30.77;;;;;;;-146.58;100.00;69501.63;5029683;28;20037;-58
2024/01/11 06:51:22;;;;;;;45.38;27.90;;;;;;;-146.58;100.00;69501.63;5032557;28;20018;-58
2024/01/11 06:53:47;;;;;;;53.03;30.95;;;;;;;-146.58;100.00;69501.63;5030564;28;20029;-57
2024/01/11 06:56:16;;;;;;;51.25;30.45;;;;;;;-146.58;100.00;69501.63;5033254;28;20469;-57
2024/01/11 06:58:43;;;;;;;51.13;28.50;;;;;;;-146.58;100.00;69501.63;5031425;28;20021;-58
2024/01/11 07:01:08;;;;;;;49.25;28.60;;;;;;;-146.58;100.00;69501.63;5032642;28;20026;-58
2024/01/11 07:03:34;;;;;;;51.72;26.25;;;;;;;-146.58;100.00;69501.63;5031231;28;20036;-58
2024/01/11 07:05:59;;;;;;;44.83;30.38;;;;;;;-146.58;100.00;69501.63;5032903;28;20022;-58
2024/01/11 07:08:25;;;;;;;50.63;29.58;;;;;;;-146.58;100.00;69501.63;5032875;28;20484;-58
2024/01/11 07:10:50;;;;;;;55.95;31.27;;;;;;;-146.58;100.00;69501.63;5031005;28;20529;-58
2024/01/11 07:13:16;;;;;;;54.03;30.05;;;;;;;-146.58;100.00;69501.63;5031574;28;20071;-58
2024/01/11 07:15:45;;;;;;;56.47;30.10;;;;;;;-146.58;100.00;69501.63;5030915;28;20052;-58
2024/01/11 07:18:10;;;;;;;45.63;28.15;;;;;;;-146.58;100.00;69501.63;5032817;28;20033;-57
2024/01/11 07:20:36;;;;;;;53.90;26.17;;;;;;;-146.58;100.00;69501.63;5030911;28;20044;-58
2024/01/11 07:23:01;;;;;;;53.72;29.02;;;;;;;-146.58;100.00;69501.63;5032490;28;20366;-58
2024/01/11 07:25:27;;;;;;;50.85;32.13;;;;;;;-146.58;100.00;69501.63;5031328;28;20048;-58
2024/01/11 07:27:52;;;;;;;54.88;31.20;;;;;;;-146.58;100.00;69501.63;5031740;28;20029;-57
2024/01/11 07:30:21;;;;;;;54.50;30.30;;;;;;;-146.58;100.00;69501.63;5029079;28;20541;-58
2024/01/11 07:32:46;;;;;;;53.25;29.80;;;;;;;-146.58;100.00;69501.63;5031167;28;20025;-57
2024/01/11 07:35:12;;;;;;;51.28;30.73;;;;;;;-146.58;100.00;69501.63;5030958;28;20044;-58
2024/01/11 07:37:38;;;;;;;51.42;30.05;;;;;;;-146.58;100.00;69501.63;5031785;28;20485;-58
2024/01/11 07:40:04;;;;;;;54.20;28.27;;;;;;;-146.58;100.00;69501.63;5031156;28;20044;-58
2024/01/11 07:42:30;;;;;;;54.92;29.63;;;;;;;-146.58;100.00;69501.63;5032015;28;20029;-58
2024/01/11 07:44:55;;;;;;;43.85;28.88;;;;;;;-146.58;100.00;69501.63;5030723;28;20033;-58
2024/01/11 07:47:21;;;;;;;46.85;27.45;;;;;;;-146.58;100.00;69501.63;5032306;28;20079;-58
2024/01/11 07:49:46;;;;;;;46.25;28.88;;;;;;;-146.58;100.00;69501.63;5030272;28;20041;-58
2024/01/11 07:52:11;;;;;;;42.25;28.58;;;;;;;-146.58;100.00;69501.63;5031980;28;20021;-58
2024/01/11 07:54:37;;;;;;;47.72;28.00;;;;;;;-146.58;100.00;69501.63;5030650;28;20041;-58
2024/01/11 07:57:03;;;;;;;45.70;30.42;;;;;;;-146.58;100.00;69501.63;5032190;28;20029;-58
2024/01/11 07:59:33;;;;;;;44.75;29.05;;;;;;;-146.58;100.00;69501.63;5029965;28;20088;-58
2024/01/11 08:01:58;;;;;;;49.30;28.98;;;;;;;-146.58;100.00;69501.63;5031944;28;20022;-58
2024/01/11 08:04:23;;;;;;;51.33;29.15;;;;;;;-146.58;100.00;69501.63;5030614;28;20037;-58
2024/01/11 08:06:49;;;;;;;46.10;28.48;;;;;;;-146.58;100.00;69501.63;5031501;28;20026;-58
2024/01/11 08:09:14;;;;;;;48.47;30.25;;;;;;;-146.58;100.00;69501.63;5030548;28;20045;-58
2024/01/11 08:11:41;;;;;;;51.47;31.02;;;;;;;-146.58;100.00;69501.63;5031594;28;20480;-58
2024/01/11 08:14:07;;;;;;;52.25;29.05;;;;;;;-146.58;100.00;69501.63;5030122;28;20037;-57
2024/01/11 08:16:32;;;;;;;50.83;28.50;;;;;;;-146.58;100.00;69501.63;5031586;28;20036;-58
2024/01/11 08:18:58;;;;;;;48.95;28.98;;;;;;;-146.58;100.00;69501.63;5030198;28;20033;-58
2024/01/11 08:21:24;;;;;;;46.42;30.30;;;;;;;-146.58;100.00;69501.63;5031272;28;20032;-58
2024/01/11 08:23:49;;;;;;;64.88;34.17;;;;;;;-146.58;100.00;69501.63;5029980;28;20079;-57
2024/01/11 08:26:15;;;;;;;46.10;29.33;;;;;;;-146.58;100.00;69501.63;5031705;28;20025;-58
2024/01/11 08:28:41;;;;;;;53.97;31.45;;;;;;;-146.58;100.00;69501.63;5029583;28;20022;-57
2024/01/11 08:31:08;;;;;;;60.92;34.95;;;;;;;-146.58;100.00;69501.63;5031551;28;20104;-57
2024/01/11 08:33:34;;;;;;;48.33;29.48;;;;;;;-146.58;100.00;69501.63;5029689;28;20022;-57
2024/01/11 08:35:59;;;;;;;50.95;30.33;;;;;;;-146.58;100.00;69501.63;5031433;28;20388;-57
2024/01/11 08:38:25;;;;;;;47.35;29.08;;;;;;;-146.58;100.00;69501.63;5031073;28;20033;-57
2024/01/11 08:40:51;;;;;;;49.75;31.48;;;;;;;-146.58;100.00;69501.63;5030002;28;20497;-57
2024/01/11 08:43:17;;;;;;;47.25;29.75;;;;;;;-146.58;100.00;69501.63;5031353;28;20061;-58
2024/01/11 08:45:43;;;;;;;53.58;29.45;;;;;;;-146.58;100.00;69501.63;5029135;28;20511;-58
2024/01/11 08:48:09;;;;;;;43.95;29.63;;;;;;;-146.58;100.00;69501.63;5031081;28;20029;-58
2024/01/11 08:50:35;;;;;;;54.17;32.28;;;;;;;-146.58;100.00;69501.63;5029304;28;20033;-57
2024/01/11 08:53:00;;;;;;;52.67;31.33;;;;;;;-146.58;100.00;69501.63;5030839;28;20041;-58
2024/01/11 08:55:26;;;;;;;53.90;33.13;;;;;;;-146.58;100.00;69501.63;5029834;28;20488;-58
2024/01/11 08:57:52;;;;;;;62.25;36.40;;;;;;;-146.58;100.00;69501.63;5030760;28;20028;-58
2024/01/11 09:00:17;;;;;;;53.55;34.53;;;;;;;-146.58;100.00;69501.63;5029132;28;20041;-58
2024/01/11 09:02:44;;;;;;;58.75;37.53;;;;;;;-146.58;100.00;69501.63;5030805;28;20052;-58
2024/01/11 09:05:09;;;;;;;56.30;37.40;;;;;;;-146.58;100.00;69501.63;5029827;28;20068;-58
2024/01/11 09:07:34;;;;;;;61.72;40.15;;;;;;;-146.58;100.00;69501.63;5030417;28;20022;-58
2024/01/11 09:10:00;;;;;;;59.88;38.55;;;;;;;-146.58;100.00;69501.63;5029399;28;20041;-57
2024/01/11 09:12:25;;;;;;;62.88;39.10;;;;;;;-146.58;100.00;69501.63;5031062;28;20017;-59
2024/01/11 09:14:51;;;;;;;65.22;38.15;;;;;;;-146.58;100.00;69501.63;5028677;28;20042;-59
2024/01/11 09:17:16;;;;;;;62.67;33.85;;;;;;;-146.58;100.00;69501.63;5030855;28;20052;-59
2024/01/11 09:19:41;;;;;;;59.22;31.25;;;;;;;-146.58;100.00;69501.63;5027652;28;20037;-60
2024/01/11 09:22:09;;;;;;;44.85;29.50;;;;;;;-146.58;100.00;69501.63;5030205;28;20049;-59
2024/01/11 09:24:35;;;;;;;44.67;28.70;;;;;;;-146.58;100.00;69501.63;5029307;28;20034;-59
2024/01/11 09:27:01;;;;;;;49.80;31.00;;;;;;;-146.58;100.00;69501.63;5030713;28;20021;-58
2024/01/11 09:29:27;;;;;;;56.78;30.30;;;;;;;-146.58;100.00;69501.63;5028188;28;20046;-59
2024/01/11 09:31:53;;;;;;;43.13;28.38;;;;;;;-146.58;100.00;69501.63;5029113;28;20481;-59
2024/01/11 09:34:18;;;;;;;51.17;29.38;;;;;;;-146.58;100.00;69501.63;5028060;28;20048;-59
2024/01/11 09:36:45;;;;;;;44.25;26.83;;;;;;;-146.58;100.00;69501.63;5029348;28;20029;-59
2024/01/11 09:39:13;;;;;;;55.92;28.02;;;;;;;-146.58;100.00;69501.63;5028612;28;20038;-59
2024/01/11 09:41:43;;;;;;;68.05;38.20;;;;;;;-146.58;100.00;69501.63;5029605;28;20415;-59
2024/01/11 09:44:09;;;;;;;55.40;33.05;;;;;;;-146.58;100.00;69501.63;5028645;28;20104;-59
2024/01/11 09:46:34;;;;;;;66.53;34.80;;;;;;;-146.58;100.00;69501.63;5030395;28;20029;-59
2024/01/11 09:49:02;;;;;;;67.32;37.28;;;;;;;-146.58;100.00;69501.63;5029165;28;20111;-59
2024/01/11 09:51:29;;;;;;;59.83;34.13;;;;;;;-146.58;100.00;69501.63;5030254;28;20066;-59
2024/01/11 09:53:58;;;;;;;71.35;34.47;;;;;;;-146.58;100.00;69501.63;5029235;28;20146;-59
2024/01/11 09:56:24;;;;;;;75.10;37.90;;;;;;;-146.58;100.00;69501.63;5032867;28;20072;-58
2024/01/11 09:58:50;;;;;;;65.47;33.05;;;;;;;-146.58;100.00;69501.63;5032227;28;20033;-59
2024/01/11 10:01:16;;;;;;;73.15;36.50;;;;;;;-146.58;100.00;69501.63;5034279;28;20033;-57
2024/01/11 10:03:42;;;;;;;63.67;33.88;;;;;;;-146.58;100.00;69501.63;5032661;28;20759;-57
2024/01/11 10:06:09;;;;;;;69.13;31.55;;;;;;;-146.58;100.00;69501.63;5033940;28;20022;-57
2024/01/11 10:08:35;;;;;;;72.18;31.23;;;;;;;-146.58;100.00;69501.63;5032672;28;20021;-57
2024/01/11 10:11:01;;;;;;;64.07;30.40;;;;;;;-146.58;100.00;69501.63;5034118;28;20024;-57
2024/01/11 10:13:31;;;;;;;65.47;32.33;;;;;;;-146.58;100.00;69501.63;5033744;28;20029;-57
2024/01/11 10:16:07;;;;;;;72.97;31.85;;;;;;;-146.58;100.00;69501.63;5032714;28;20128;-57
2024/01/11 10:18:32;;;;;;;80.22;38.30;;;;;;;-146.58;100.00;69501.63;5032077;28;20028;-57
2024/01/11 10:20:58;;;;;;;45.72;24.40;;;;;;;-146.58;100.00;69501.63;5033754;28;20384;-57
2024/01/11 10:23:23;;;;;;;59.08;38.40;;;;;;;-146.58;100.00;69501.63;5033912;28;20029;-57
2024/01/11 10:25:49;;;;;;;51.60;27.83;;;;;;;-146.58;100.00;69501.63;5032287;28;20060;-58
2024/01/11 10:28:15;;;;;;;56.25;30.00;;;;;;;-146.58;100.00;69501.63;5033476;28;20105;-58
2024/01/11 10:30:41;;;;;;;62.25;31.98;;;;;;;-146.58;100.00;69501.63;5032185;28;20041;-58
2024/01/11 10:33:07;;;;;;;59.20;29.85;;;;;;;-146.58;100.00;69501.63;5033818;28;20029;-58
2024/01/11 10:35:35;;;;;;;71.18;39.17;;;;;;;-146.58;100.00;69501.63;5031701;28;20128;-58
2024/01/11 10:38:08;;;;;;;100.88;35.17;;;;;;;-146.58;100.00;69501.63;5033512;28;20053;-58
2024/01/11 10:40:34;;;;;;;91.90;44.92;;;;;;;-146.58;100.00;69501.63;5031880;28;20046;-58
2024/01/11 10:43:01;;;;;;;99.95;43.30;;;;;;;-146.58;100.00;69501.63;5033192;28;20034;-58
2024/01/11 10:45:28;;;;;;;104.18;54.40;;;;;;;-146.58;100.00;69501.63;5032261;28;20552;-58
2024/01/11 10:48:04;;;;;;;122.35;49.30;;;;;;;-146.58;100.00;69501.63;5033514;28;20465;-58